<?xml version="1.0" encoding="UTF-8" standalone="no" ?>
<gpx xmlns="http://www.topografix.com/GPX/1/1" xmlns:xsi="http://www.w3.org/2001/XMLSchema-instance" xsi:schemaLocation="http://www.topografix.com/GPX/1/1 http://www.topografix.com/GPX/1/1/gpx.xsd" version="1.1" creator="VisuGPX - https://www.visugpx.com">
  <metadata>
    <name>Chandeleur 2024 20km</name>
  </metadata>
  <trk>
    <name><![CDATA[randonnee de la chandeleur-15992269]]></name>
    <trkseg>
      <trkpt lat="47.80333" lon="1.03471">
        <ele>82</ele>
        <time>2024-01-16T15:27:22Z</time>
      </trkpt>
      <trkpt lat="47.80325" lon="1.03341">
        <ele>84</ele>
        <time>2024-01-16T15:29:19Z</time>
      </trkpt>
      <trkpt lat="47.8032" lon="1.03291">
        <ele>85</ele>
        <time>2024-01-16T15:30:04Z</time>
      </trkpt>
      <trkpt lat="47.8031" lon="1.03251">
        <ele>86</ele>
        <time>2024-01-16T15:30:43Z</time>
      </trkpt>
      <trkpt lat="47.80301" lon="1.03232">
        <ele>86</ele>
        <time>2024-01-16T15:31:03Z</time>
      </trkpt>
      <trkpt lat="47.80259" lon="1.03163">
        <ele>83</ele>
        <time>2024-01-16T15:32:27Z</time>
      </trkpt>
      <trkpt lat="47.80175" lon="1.0302">
        <ele>83</ele>
        <time>2024-01-16T15:35:17Z</time>
      </trkpt>
      <trkpt lat="47.80104" lon="1.02895">
        <ele>85</ele>
        <time>2024-01-16T15:37:44Z</time>
      </trkpt>
      <trkpt lat="47.80086" lon="1.0287">
        <ele>85</ele>
        <time>2024-01-16T15:38:17Z</time>
      </trkpt>
      <trkpt lat="47.80071" lon="1.02856">
        <ele>85</ele>
        <time>2024-01-16T15:38:40Z</time>
      </trkpt>
      <trkpt lat="47.80064" lon="1.02854">
        <ele>85</ele>
        <time>2024-01-16T15:38:50Z</time>
      </trkpt>
      <trkpt lat="47.80057" lon="1.02831">
        <ele>86</ele>
        <time>2024-01-16T15:39:13Z</time>
      </trkpt>
      <trkpt lat="47.79994" lon="1.02738">
        <ele>84</ele>
        <time>2024-01-16T15:41:11Z</time>
      </trkpt>
      <trkpt lat="47.79988" lon="1.02732">
        <ele>85</ele>
        <time>2024-01-16T15:41:21Z</time>
      </trkpt>
      <trkpt lat="47.79982" lon="1.02677">
        <ele>91</ele>
        <time>2024-01-16T15:42:11Z</time>
      </trkpt>
      <trkpt lat="47.79974" lon="1.02634">
        <ele>95</ele>
        <time>2024-01-16T15:42:51Z</time>
      </trkpt>
      <trkpt lat="47.79974" lon="1.02622">
        <ele>96</ele>
        <time>2024-01-16T15:43:01Z</time>
      </trkpt>
      <trkpt lat="47.79974" lon="1.02622">
        <ele>96</ele>
        <time>2024-01-16T15:43:01Z</time>
      </trkpt>
      <trkpt lat="47.79974" lon="1.02622">
        <ele>96</ele>
        <time>2024-01-16T15:43:01Z</time>
      </trkpt>
      <trkpt lat="47.7997" lon="1.02597">
        <ele>99</ele>
        <time>2024-01-16T15:43:24Z</time>
      </trkpt>
      <trkpt lat="47.79969" lon="1.02583">
        <ele>100</ele>
        <time>2024-01-16T15:43:37Z</time>
      </trkpt>
      <trkpt lat="47.79958" lon="1.02522">
        <ele>104</ele>
        <time>2024-01-16T15:44:34Z</time>
      </trkpt>
      <trkpt lat="47.79955" lon="1.02483">
        <ele>106</ele>
        <time>2024-01-16T15:45:09Z</time>
      </trkpt>
      <trkpt lat="47.79959" lon="1.02457">
        <ele>108</ele>
        <time>2024-01-16T15:45:33Z</time>
      </trkpt>
      <trkpt lat="47.79972" lon="1.02424">
        <ele>112</ele>
        <time>2024-01-16T15:46:07Z</time>
      </trkpt>
      <trkpt lat="47.79973" lon="1.02422">
        <ele>113</ele>
        <time>2024-01-16T15:46:09Z</time>
      </trkpt>
      <trkpt lat="47.79962" lon="1.02406">
        <ele>112</ele>
        <time>2024-01-16T15:46:30Z</time>
      </trkpt>
      <trkpt lat="47.79938" lon="1.02342">
        <ele>114</ele>
        <time>2024-01-16T15:47:35Z</time>
      </trkpt>
      <trkpt lat="47.79969" lon="1.02283">
        <ele>120</ele>
        <time>2024-01-16T15:48:43Z</time>
      </trkpt>
      <trkpt lat="47.79968" lon="1.02282">
        <ele>120</ele>
        <time>2024-01-16T15:48:44Z</time>
      </trkpt>
      <trkpt lat="47.79961" lon="1.02275">
        <ele>121</ele>
        <time>2024-01-16T15:48:55Z</time>
      </trkpt>
      <trkpt lat="47.79948" lon="1.02244">
        <ele>122</ele>
        <time>2024-01-16T15:49:28Z</time>
      </trkpt>
      <trkpt lat="47.79947" lon="1.0223">
        <ele>122</ele>
        <time>2024-01-16T15:49:41Z</time>
      </trkpt>
      <trkpt lat="47.79949" lon="1.02223">
        <ele>123</ele>
        <time>2024-01-16T15:49:48Z</time>
      </trkpt>
      <trkpt lat="47.79949" lon="1.02223">
        <ele>123</ele>
        <time>2024-01-16T15:49:48Z</time>
      </trkpt>
      <trkpt lat="47.79945" lon="1.02211">
        <ele>123</ele>
        <time>2024-01-16T15:50:00Z</time>
      </trkpt>
      <trkpt lat="47.7987" lon="1.02068">
        <ele>121</ele>
        <time>2024-01-16T15:52:42Z</time>
      </trkpt>
      <trkpt lat="47.79824" lon="1.0198">
        <ele>118</ele>
        <time>2024-01-16T15:54:22Z</time>
      </trkpt>
      <trkpt lat="47.79823" lon="1.0198">
        <ele>118</ele>
        <time>2024-01-16T15:54:24Z</time>
      </trkpt>
      <trkpt lat="47.79853" lon="1.01956">
        <ele>120</ele>
        <time>2024-01-16T15:55:09Z</time>
      </trkpt>
      <trkpt lat="47.79852" lon="1.01956">
        <ele>120</ele>
        <time>2024-01-16T15:55:10Z</time>
      </trkpt>
      <trkpt lat="47.79799" lon="1.01758">
        <ele>113</ele>
        <time>2024-01-16T15:58:21Z</time>
      </trkpt>
      <trkpt lat="47.79769" lon="1.01643">
        <ele>108</ele>
        <time>2024-01-16T16:00:12Z</time>
      </trkpt>
      <trkpt lat="47.79768" lon="1.01643">
        <ele>108</ele>
        <time>2024-01-16T16:00:13Z</time>
      </trkpt>
      <trkpt lat="47.79688" lon="1.01637">
        <ele>102</ele>
        <time>2024-01-16T16:02:00Z</time>
      </trkpt>
      <trkpt lat="47.79617" lon="1.01632">
        <ele>99</ele>
        <time>2024-01-16T16:03:35Z</time>
      </trkpt>
      <trkpt lat="47.79616" lon="1.01632">
        <ele>99</ele>
        <time>2024-01-16T16:03:36Z</time>
      </trkpt>
      <trkpt lat="47.7963" lon="1.01583">
        <ele>99</ele>
        <time>2024-01-16T16:04:24Z</time>
      </trkpt>
      <trkpt lat="47.79638" lon="1.0154">
        <ele>100</ele>
        <time>2024-01-16T16:05:04Z</time>
      </trkpt>
      <trkpt lat="47.79662" lon="1.0149">
        <ele>100</ele>
        <time>2024-01-16T16:05:59Z</time>
      </trkpt>
      <trkpt lat="47.79674" lon="1.01472">
        <ele>100</ele>
        <time>2024-01-16T16:06:22Z</time>
      </trkpt>
      <trkpt lat="47.79674" lon="1.01471">
        <ele>100</ele>
        <time>2024-01-16T16:06:23Z</time>
      </trkpt>
      <trkpt lat="47.79665" lon="1.01444">
        <ele>98</ele>
        <time>2024-01-16T16:06:50Z</time>
      </trkpt>
      <trkpt lat="47.79659" lon="1.01438">
        <ele>98</ele>
        <time>2024-01-16T16:06:59Z</time>
      </trkpt>
      <trkpt lat="47.79645" lon="1.01437">
        <ele>98</ele>
        <time>2024-01-16T16:07:18Z</time>
      </trkpt>
      <trkpt lat="47.79645" lon="1.01434">
        <ele>97</ele>
        <time>2024-01-16T16:07:21Z</time>
      </trkpt>
      <trkpt lat="47.79645" lon="1.01437">
        <ele>98</ele>
        <time>2024-01-16T16:07:24Z</time>
      </trkpt>
      <trkpt lat="47.79635" lon="1.01443">
        <ele>98</ele>
        <time>2024-01-16T16:07:38Z</time>
      </trkpt>
      <trkpt lat="47.79626" lon="1.01454">
        <ele>98</ele>
        <time>2024-01-16T16:07:53Z</time>
      </trkpt>
      <trkpt lat="47.79578" lon="1.01519">
        <ele>98</ele>
        <time>2024-01-16T16:09:20Z</time>
      </trkpt>
      <trkpt lat="47.79549" lon="1.0155">
        <ele>97</ele>
        <time>2024-01-16T16:10:08Z</time>
      </trkpt>
      <trkpt lat="47.79467" lon="1.01604">
        <ele>95</ele>
        <time>2024-01-16T16:12:07Z</time>
      </trkpt>
      <trkpt lat="47.79416" lon="1.01633">
        <ele>91</ele>
        <time>2024-01-16T16:13:20Z</time>
      </trkpt>
      <trkpt lat="47.79417" lon="1.01633">
        <ele>91</ele>
        <time>2024-01-16T16:13:22Z</time>
      </trkpt>
      <trkpt lat="47.79378" lon="1.01576">
        <ele>90</ele>
        <time>2024-01-16T16:14:35Z</time>
      </trkpt>
      <trkpt lat="47.79353" lon="1.01531">
        <ele>91</ele>
        <time>2024-01-16T16:15:27Z</time>
      </trkpt>
      <trkpt lat="47.79285" lon="1.0141">
        <ele>91</ele>
        <time>2024-01-16T16:17:48Z</time>
      </trkpt>
      <trkpt lat="47.79251" lon="1.01354">
        <ele>90</ele>
        <time>2024-01-16T16:18:56Z</time>
      </trkpt>
      <trkpt lat="47.79225" lon="1.01306">
        <ele>90</ele>
        <time>2024-01-16T16:19:51Z</time>
      </trkpt>
      <trkpt lat="47.79219" lon="1.01299">
        <ele>90</ele>
        <time>2024-01-16T16:20:01Z</time>
      </trkpt>
      <trkpt lat="47.79216" lon="1.01297">
        <ele>90</ele>
        <time>2024-01-16T16:20:06Z</time>
      </trkpt>
      <trkpt lat="47.79207" lon="1.01298">
        <ele>90</ele>
        <time>2024-01-16T16:20:18Z</time>
      </trkpt>
      <trkpt lat="47.79158" lon="1.01364">
        <ele>87</ele>
        <time>2024-01-16T16:21:46Z</time>
      </trkpt>
      <trkpt lat="47.79141" lon="1.01364">
        <ele>86</ele>
        <time>2024-01-16T16:22:09Z</time>
      </trkpt>
      <trkpt lat="47.79102" lon="1.01331">
        <ele>84</ele>
        <time>2024-01-16T16:23:09Z</time>
      </trkpt>
      <trkpt lat="47.79016" lon="1.01259">
        <ele>83</ele>
        <time>2024-01-16T16:25:20Z</time>
      </trkpt>
      <trkpt lat="47.78981" lon="1.01233">
        <ele>82</ele>
        <time>2024-01-16T16:26:12Z</time>
      </trkpt>
      <trkpt lat="47.78958" lon="1.01225">
        <ele>82</ele>
        <time>2024-01-16T16:26:44Z</time>
      </trkpt>
      <trkpt lat="47.78937" lon="1.01259">
        <ele>79</ele>
        <time>2024-01-16T16:27:25Z</time>
      </trkpt>
      <trkpt lat="47.7887" lon="1.01199">
        <ele>80</ele>
        <time>2024-01-16T16:29:10Z</time>
      </trkpt>
      <trkpt lat="47.78825" lon="1.01165">
        <ele>81</ele>
        <time>2024-01-16T16:30:17Z</time>
      </trkpt>
      <trkpt lat="47.78767" lon="1.01246">
        <ele>77</ele>
        <time>2024-01-16T16:32:03Z</time>
      </trkpt>
      <trkpt lat="47.78707" lon="1.01326">
        <ele>76</ele>
        <time>2024-01-16T16:33:51Z</time>
      </trkpt>
      <trkpt lat="47.78647" lon="1.01406">
        <ele>76</ele>
        <time>2024-01-16T16:35:38Z</time>
      </trkpt>
      <trkpt lat="47.7863" lon="1.01428">
        <ele>77</ele>
        <time>2024-01-16T16:36:08Z</time>
      </trkpt>
      <trkpt lat="47.78607" lon="1.01435">
        <ele>78</ele>
        <time>2024-01-16T16:36:40Z</time>
      </trkpt>
      <trkpt lat="47.78585" lon="1.01425">
        <ele>78</ele>
        <time>2024-01-16T16:37:10Z</time>
      </trkpt>
      <trkpt lat="47.78529" lon="1.01316">
        <ele>78</ele>
        <time>2024-01-16T16:39:13Z</time>
      </trkpt>
      <trkpt lat="47.78514" lon="1.01289">
        <ele>77</ele>
        <time>2024-01-16T16:39:45Z</time>
      </trkpt>
      <trkpt lat="47.78491" lon="1.01276">
        <ele>77</ele>
        <time>2024-01-16T16:40:18Z</time>
      </trkpt>
      <trkpt lat="47.78468" lon="1.01276">
        <ele>78</ele>
        <time>2024-01-16T16:40:48Z</time>
      </trkpt>
      <trkpt lat="47.78439" lon="1.01305">
        <ele>78</ele>
        <time>2024-01-16T16:41:35Z</time>
      </trkpt>
      <trkpt lat="47.78395" lon="1.01334">
        <ele>79</ele>
        <time>2024-01-16T16:42:39Z</time>
      </trkpt>
      <trkpt lat="47.78356" lon="1.01334">
        <ele>79</ele>
        <time>2024-01-16T16:43:31Z</time>
      </trkpt>
      <trkpt lat="47.78332" lon="1.0134">
        <ele>80</ele>
        <time>2024-01-16T16:44:04Z</time>
      </trkpt>
      <trkpt lat="47.78263" lon="1.01381">
        <ele>77</ele>
        <time>2024-01-16T16:45:43Z</time>
      </trkpt>
      <trkpt lat="47.78222" lon="1.01275">
        <ele>77</ele>
        <time>2024-01-16T16:47:32Z</time>
      </trkpt>
      <trkpt lat="47.78199" lon="1.01171">
        <ele>76</ele>
        <time>2024-01-16T16:49:11Z</time>
      </trkpt>
      <trkpt lat="47.78185" lon="1.0106">
        <ele>75</ele>
        <time>2024-01-16T16:50:52Z</time>
      </trkpt>
      <trkpt lat="47.78179" lon="1.00985">
        <ele>74</ele>
        <time>2024-01-16T16:52:00Z</time>
      </trkpt>
      <trkpt lat="47.78182" lon="1.00875">
        <ele>76</ele>
        <time>2024-01-16T16:53:38Z</time>
      </trkpt>
      <trkpt lat="47.78177" lon="1.00759">
        <ele>76</ele>
        <time>2024-01-16T16:55:23Z</time>
      </trkpt>
      <trkpt lat="47.78165" lon="1.00614">
        <ele>74</ele>
        <time>2024-01-16T16:57:34Z</time>
      </trkpt>
      <trkpt lat="47.78147" lon="1.00489">
        <ele>75</ele>
        <time>2024-01-16T16:59:28Z</time>
      </trkpt>
      <trkpt lat="47.78078" lon="1.00531">
        <ele>74</ele>
        <time>2024-01-16T17:01:08Z</time>
      </trkpt>
      <trkpt lat="47.78007" lon="1.00568">
        <ele>76</ele>
        <time>2024-01-16T17:02:48Z</time>
      </trkpt>
      <trkpt lat="47.77965" lon="1.00592">
        <ele>76</ele>
        <time>2024-01-16T17:03:48Z</time>
      </trkpt>
      <trkpt lat="47.77976" lon="1.00639">
        <ele>76</ele>
        <time>2024-01-16T17:04:33Z</time>
      </trkpt>
      <trkpt lat="47.77978" lon="1.00676">
        <ele>76</ele>
        <time>2024-01-16T17:05:06Z</time>
      </trkpt>
      <trkpt lat="47.77971" lon="1.00701">
        <ele>76</ele>
        <time>2024-01-16T17:05:30Z</time>
      </trkpt>
      <trkpt lat="47.77927" lon="1.00713">
        <ele>76</ele>
        <time>2024-01-16T17:06:30Z</time>
      </trkpt>
      <trkpt lat="47.77873" lon="1.00716">
        <ele>76</ele>
        <time>2024-01-16T17:07:42Z</time>
      </trkpt>
      <trkpt lat="47.77807" lon="1.00712">
        <ele>77</ele>
        <time>2024-01-16T17:09:10Z</time>
      </trkpt>
      <trkpt lat="47.77727" lon="1.00708">
        <ele>80</ele>
        <time>2024-01-16T17:10:57Z</time>
      </trkpt>
      <trkpt lat="47.77648" lon="1.00708">
        <ele>81</ele>
        <time>2024-01-16T17:12:43Z</time>
      </trkpt>
      <trkpt lat="47.77568" lon="1.00705">
        <ele>82</ele>
        <time>2024-01-16T17:14:29Z</time>
      </trkpt>
      <trkpt lat="47.7749" lon="1.00695">
        <ele>85</ele>
        <time>2024-01-16T17:16:14Z</time>
      </trkpt>
      <trkpt lat="47.77423" lon="1.007">
        <ele>88</ele>
        <time>2024-01-16T17:17:43Z</time>
      </trkpt>
      <trkpt lat="47.77395" lon="1.00694">
        <ele>91</ele>
        <time>2024-01-16T17:18:21Z</time>
      </trkpt>
      <trkpt lat="47.77431" lon="1.00504">
        <ele>87</ele>
        <time>2024-01-16T17:21:18Z</time>
      </trkpt>
      <trkpt lat="47.77467" lon="1.00315">
        <ele>87</ele>
        <time>2024-01-16T17:24:14Z</time>
      </trkpt>
      <trkpt lat="47.77501" lon="1.00156">
        <ele>85</ele>
        <time>2024-01-16T17:26:44Z</time>
      </trkpt>
      <trkpt lat="47.77532" lon="1.0006">
        <ele>86</ele>
        <time>2024-01-16T17:28:19Z</time>
      </trkpt>
      <trkpt lat="47.77566" lon="0.99984">
        <ele>84</ele>
        <time>2024-01-16T17:29:41Z</time>
      </trkpt>
      <trkpt lat="47.77544" lon="0.99972">
        <ele>87</ele>
        <time>2024-01-16T17:30:13Z</time>
      </trkpt>
      <trkpt lat="47.77525" lon="0.99958">
        <ele>90</ele>
        <time>2024-01-16T17:30:41Z</time>
      </trkpt>
      <trkpt lat="47.77515" lon="0.9993">
        <ele>92</ele>
        <time>2024-01-16T17:31:09Z</time>
      </trkpt>
      <trkpt lat="47.77518" lon="0.99868">
        <ele>94</ele>
        <time>2024-01-16T17:32:05Z</time>
      </trkpt>
      <trkpt lat="47.77557" lon="0.99751">
        <ele>97</ele>
        <time>2024-01-16T17:34:02Z</time>
      </trkpt>
      <trkpt lat="47.77568" lon="0.99741">
        <ele>96</ele>
        <time>2024-01-16T17:34:19Z</time>
      </trkpt>
      <trkpt lat="47.77577" lon="0.99702">
        <ele>96</ele>
        <time>2024-01-16T17:34:56Z</time>
      </trkpt>
      <trkpt lat="47.77616" lon="0.99636">
        <ele>91</ele>
        <time>2024-01-16T17:36:15Z</time>
      </trkpt>
      <trkpt lat="47.77628" lon="0.99627">
        <ele>90</ele>
        <time>2024-01-16T17:36:33Z</time>
      </trkpt>
      <trkpt lat="47.77649" lon="0.9963">
        <ele>86</ele>
        <time>2024-01-16T17:37:01Z</time>
      </trkpt>
      <trkpt lat="47.77651" lon="0.99611">
        <ele>87</ele>
        <time>2024-01-16T17:37:18Z</time>
      </trkpt>
      <trkpt lat="47.77664" lon="0.99595">
        <ele>86</ele>
        <time>2024-01-16T17:37:41Z</time>
      </trkpt>
      <trkpt lat="47.77702" lon="0.99533">
        <ele>88</ele>
        <time>2024-01-16T17:38:56Z</time>
      </trkpt>
      <trkpt lat="47.77737" lon="0.99458">
        <ele>91</ele>
        <time>2024-01-16T17:40:18Z</time>
      </trkpt>
      <trkpt lat="47.77771" lon="0.99372">
        <ele>91</ele>
        <time>2024-01-16T17:41:48Z</time>
      </trkpt>
      <trkpt lat="47.77838" lon="0.99222">
        <ele>92</ele>
        <time>2024-01-16T17:44:29Z</time>
      </trkpt>
      <trkpt lat="47.77843" lon="0.99198">
        <ele>94</ele>
        <time>2024-01-16T17:44:52Z</time>
      </trkpt>
      <trkpt lat="47.7786" lon="0.99139">
        <ele>95</ele>
        <time>2024-01-16T17:45:49Z</time>
      </trkpt>
      <trkpt lat="47.7788" lon="0.9908">
        <ele>96</ele>
        <time>2024-01-16T17:46:49Z</time>
      </trkpt>
      <trkpt lat="47.77886" lon="0.99048">
        <ele>97</ele>
        <time>2024-01-16T17:47:18Z</time>
      </trkpt>
      <trkpt lat="47.77885" lon="0.98992">
        <ele>99</ele>
        <time>2024-01-16T17:48:09Z</time>
      </trkpt>
      <trkpt lat="47.77906" lon="0.98937">
        <ele>101</ele>
        <time>2024-01-16T17:49:05Z</time>
      </trkpt>
      <trkpt lat="47.77913" lon="0.98916">
        <ele>102</ele>
        <time>2024-01-16T17:49:26Z</time>
      </trkpt>
      <trkpt lat="47.77941" lon="0.98872">
        <ele>99</ele>
        <time>2024-01-16T17:50:21Z</time>
      </trkpt>
      <trkpt lat="47.77961" lon="0.98824">
        <ele>98</ele>
        <time>2024-01-16T17:51:11Z</time>
      </trkpt>
      <trkpt lat="47.78009" lon="0.98718">
        <ele>100</ele>
        <time>2024-01-16T17:53:06Z</time>
      </trkpt>
      <trkpt lat="47.78052" lon="0.98662">
        <ele>102</ele>
        <time>2024-01-16T17:54:22Z</time>
      </trkpt>
      <trkpt lat="47.78153" lon="0.98539">
        <ele>98</ele>
        <time>2024-01-16T17:57:16Z</time>
      </trkpt>
      <trkpt lat="47.78196" lon="0.98491">
        <ele>98</ele>
        <time>2024-01-16T17:58:28Z</time>
      </trkpt>
      <trkpt lat="47.78235" lon="0.9848">
        <ele>97</ele>
        <time>2024-01-16T17:59:21Z</time>
      </trkpt>
      <trkpt lat="47.7827" lon="0.98465">
        <ele>96</ele>
        <time>2024-01-16T18:00:10Z</time>
      </trkpt>
      <trkpt lat="47.78367" lon="0.98402">
        <ele>100</ele>
        <time>2024-01-16T18:02:31Z</time>
      </trkpt>
      <trkpt lat="47.78465" lon="0.98348">
        <ele>105</ele>
        <time>2024-01-16T18:04:50Z</time>
      </trkpt>
      <trkpt lat="47.78499" lon="0.98309">
        <ele>107</ele>
        <time>2024-01-16T18:05:48Z</time>
      </trkpt>
      <trkpt lat="47.78595" lon="0.98255">
        <ele>111</ele>
        <time>2024-01-16T18:08:05Z</time>
      </trkpt>
      <trkpt lat="47.78694" lon="0.98191">
        <ele>118</ele>
        <time>2024-01-16T18:10:29Z</time>
      </trkpt>
      <trkpt lat="47.78792" lon="0.98138">
        <ele>120</ele>
        <time>2024-01-16T18:12:48Z</time>
      </trkpt>
      <trkpt lat="47.78853" lon="0.98104">
        <ele>121</ele>
        <time>2024-01-16T18:14:15Z</time>
      </trkpt>
      <trkpt lat="47.78885" lon="0.98097">
        <ele>121</ele>
        <time>2024-01-16T18:14:58Z</time>
      </trkpt>
      <trkpt lat="47.78981" lon="0.98102">
        <ele>121</ele>
        <time>2024-01-16T18:17:06Z</time>
      </trkpt>
      <trkpt lat="47.79072" lon="0.98122">
        <ele>122</ele>
        <time>2024-01-16T18:19:09Z</time>
      </trkpt>
      <trkpt lat="47.79131" lon="0.98107">
        <ele>120</ele>
        <time>2024-01-16T18:20:29Z</time>
      </trkpt>
      <trkpt lat="47.79215" lon="0.98014">
        <ele>118</ele>
        <time>2024-01-16T18:22:48Z</time>
      </trkpt>
      <trkpt lat="47.79271" lon="0.9797">
        <ele>116</ele>
        <time>2024-01-16T18:24:13Z</time>
      </trkpt>
      <trkpt lat="47.79338" lon="0.97926">
        <ele>109</ele>
        <time>2024-01-16T18:25:51Z</time>
      </trkpt>
      <trkpt lat="47.79437" lon="0.97877">
        <ele>102</ele>
        <time>2024-01-16T18:28:10Z</time>
      </trkpt>
      <trkpt lat="47.79534" lon="0.97828">
        <ele>97</ele>
        <time>2024-01-16T18:30:26Z</time>
      </trkpt>
      <trkpt lat="47.79631" lon="0.97777">
        <ele>96</ele>
        <time>2024-01-16T18:32:44Z</time>
      </trkpt>
      <trkpt lat="47.79645" lon="0.97769">
        <ele>95</ele>
        <time>2024-01-16T18:33:04Z</time>
      </trkpt>
      <trkpt lat="47.79683" lon="0.97941">
        <ele>97</ele>
        <time>2024-01-16T18:35:46Z</time>
      </trkpt>
      <trkpt lat="47.79691" lon="0.97974">
        <ele>97</ele>
        <time>2024-01-16T18:36:18Z</time>
      </trkpt>
      <trkpt lat="47.79745" lon="0.97946">
        <ele>95</ele>
        <time>2024-01-16T18:37:34Z</time>
      </trkpt>
      <trkpt lat="47.79756" lon="0.97954">
        <ele>95</ele>
        <time>2024-01-16T18:37:50Z</time>
      </trkpt>
      <trkpt lat="47.79776" lon="0.98043">
        <ele>93</ele>
        <time>2024-01-16T18:39:14Z</time>
      </trkpt>
      <trkpt lat="47.79784" lon="0.9806">
        <ele>91</ele>
        <time>2024-01-16T18:39:33Z</time>
      </trkpt>
      <trkpt lat="47.79799" lon="0.98057">
        <ele>91</ele>
        <time>2024-01-16T18:39:53Z</time>
      </trkpt>
      <trkpt lat="47.79894" lon="0.97998">
        <ele>91</ele>
        <time>2024-01-16T18:42:10Z</time>
      </trkpt>
      <trkpt lat="47.79982" lon="0.97937">
        <ele>90</ele>
        <time>2024-01-16T18:44:20Z</time>
      </trkpt>
      <trkpt lat="47.80068" lon="0.97876">
        <ele>89</ele>
        <time>2024-01-16T18:46:27Z</time>
      </trkpt>
      <trkpt lat="47.80113" lon="0.97845">
        <ele>89</ele>
        <time>2024-01-16T18:47:33Z</time>
      </trkpt>
      <trkpt lat="47.80147" lon="0.97834">
        <ele>87</ele>
        <time>2024-01-16T18:48:20Z</time>
      </trkpt>
      <trkpt lat="47.80196" lon="0.97814">
        <ele>86</ele>
        <time>2024-01-16T18:49:28Z</time>
      </trkpt>
      <trkpt lat="47.80232" lon="0.97796">
        <ele>85</ele>
        <time>2024-01-16T18:50:18Z</time>
      </trkpt>
      <trkpt lat="47.80231" lon="0.97813">
        <ele>84</ele>
        <time>2024-01-16T18:50:33Z</time>
      </trkpt>
      <trkpt lat="47.80215" lon="0.97828">
        <ele>83</ele>
        <time>2024-01-16T18:50:59Z</time>
      </trkpt>
      <trkpt lat="47.80199" lon="0.97839">
        <ele>84</ele>
        <time>2024-01-16T18:51:22Z</time>
      </trkpt>
      <trkpt lat="47.80193" lon="0.97851">
        <ele>83</ele>
        <time>2024-01-16T18:51:36Z</time>
      </trkpt>
      <trkpt lat="47.8018" lon="0.9786">
        <ele>82</ele>
        <time>2024-01-16T18:51:55Z</time>
      </trkpt>
      <trkpt lat="47.80185" lon="0.9789">
        <ele>79</ele>
        <time>2024-01-16T18:52:22Z</time>
      </trkpt>
      <trkpt lat="47.80225" lon="0.97869">
        <ele>79</ele>
        <time>2024-01-16T18:53:19Z</time>
      </trkpt>
      <trkpt lat="47.80303" lon="0.9782">
        <ele>78</ele>
        <time>2024-01-16T18:55:12Z</time>
      </trkpt>
      <trkpt lat="47.80321" lon="0.97828">
        <ele>76</ele>
        <time>2024-01-16T18:55:37Z</time>
      </trkpt>
      <trkpt lat="47.80319" lon="0.97847">
        <ele>75</ele>
        <time>2024-01-16T18:55:54Z</time>
      </trkpt>
      <trkpt lat="47.80353" lon="0.97964">
        <ele>75</ele>
        <time>2024-01-16T18:57:49Z</time>
      </trkpt>
      <trkpt lat="47.80376" lon="0.98041">
        <ele>76</ele>
        <time>2024-01-16T18:59:04Z</time>
      </trkpt>
      <trkpt lat="47.80417" lon="0.97995">
        <ele>76</ele>
        <time>2024-01-16T19:00:13Z</time>
      </trkpt>
      <trkpt lat="47.80485" lon="0.97961">
        <ele>75</ele>
        <time>2024-01-16T19:01:48Z</time>
      </trkpt>
      <trkpt lat="47.80566" lon="0.97918">
        <ele>75</ele>
        <time>2024-01-16T19:03:43Z</time>
      </trkpt>
      <trkpt lat="47.80646" lon="0.97874">
        <ele>75</ele>
        <time>2024-01-16T19:05:37Z</time>
      </trkpt>
      <trkpt lat="47.80731" lon="0.97829">
        <ele>74</ele>
        <time>2024-01-16T19:07:37Z</time>
      </trkpt>
      <trkpt lat="47.80815" lon="0.97784">
        <ele>74</ele>
        <time>2024-01-16T19:09:36Z</time>
      </trkpt>
      <trkpt lat="47.80844" lon="0.97767">
        <ele>74</ele>
        <time>2024-01-16T19:10:18Z</time>
      </trkpt>
      <trkpt lat="47.80873" lon="0.97854">
        <ele>74</ele>
        <time>2024-01-16T19:11:45Z</time>
      </trkpt>
      <trkpt lat="47.8089" lon="0.97878">
        <ele>74</ele>
        <time>2024-01-16T19:12:16Z</time>
      </trkpt>
      <trkpt lat="47.80937" lon="0.9782">
        <ele>75</ele>
        <time>2024-01-16T19:13:38Z</time>
      </trkpt>
      <trkpt lat="47.80993" lon="0.97776">
        <ele>75</ele>
        <time>2024-01-16T19:15:02Z</time>
      </trkpt>
      <trkpt lat="47.81047" lon="0.97732">
        <ele>76</ele>
        <time>2024-01-16T19:16:24Z</time>
      </trkpt>
      <trkpt lat="47.81103" lon="0.9768">
        <ele>80</ele>
        <time>2024-01-16T19:17:53Z</time>
      </trkpt>
      <trkpt lat="47.81186" lon="0.97595">
        <ele>87</ele>
        <time>2024-01-16T19:20:07Z</time>
      </trkpt>
      <trkpt lat="47.81205" lon="0.976">
        <ele>92</ele>
        <time>2024-01-16T19:20:33Z</time>
      </trkpt>
      <trkpt lat="47.81228" lon="0.97544">
        <ele>95</ele>
        <time>2024-01-16T19:21:32Z</time>
      </trkpt>
      <trkpt lat="47.81243" lon="0.97484">
        <ele>96</ele>
        <time>2024-01-16T19:22:29Z</time>
      </trkpt>
      <trkpt lat="47.81244" lon="0.97513">
        <ele>98</ele>
        <time>2024-01-16T19:22:55Z</time>
      </trkpt>
      <trkpt lat="47.81258" lon="0.97496">
        <ele>100</ele>
        <time>2024-01-16T19:23:19Z</time>
      </trkpt>
      <trkpt lat="47.81271" lon="0.97469">
        <ele>101</ele>
        <time>2024-01-16T19:23:49Z</time>
      </trkpt>
      <trkpt lat="47.81279" lon="0.97443">
        <ele>101</ele>
        <time>2024-01-16T19:24:14Z</time>
      </trkpt>
      <trkpt lat="47.81292" lon="0.97416">
        <ele>103</ele>
        <time>2024-01-16T19:24:44Z</time>
      </trkpt>
      <trkpt lat="47.81299" lon="0.97415">
        <ele>104</ele>
        <time>2024-01-16T19:24:54Z</time>
      </trkpt>
      <trkpt lat="47.81301" lon="0.97368">
        <ele>104</ele>
        <time>2024-01-16T19:25:36Z</time>
      </trkpt>
      <trkpt lat="47.81339" lon="0.97379">
        <ele>114</ele>
        <time>2024-01-16T19:26:27Z</time>
      </trkpt>
      <trkpt lat="47.81323" lon="0.97461">
        <ele>113</ele>
        <time>2024-01-16T19:27:44Z</time>
      </trkpt>
      <trkpt lat="47.81291" lon="0.97625">
        <ele>112</ele>
        <time>2024-01-16T19:30:17Z</time>
      </trkpt>
      <trkpt lat="47.81263" lon="0.9775">
        <ele>115</ele>
        <time>2024-01-16T19:32:15Z</time>
      </trkpt>
      <trkpt lat="47.81242" lon="0.97836">
        <ele>116</ele>
        <time>2024-01-16T19:33:37Z</time>
      </trkpt>
      <trkpt lat="47.81266" lon="0.97853">
        <ele>119</ele>
        <time>2024-01-16T19:34:13Z</time>
      </trkpt>
      <trkpt lat="47.81191" lon="0.98045">
        <ele>110</ele>
        <time>2024-01-16T19:37:32Z</time>
      </trkpt>
      <trkpt lat="47.81146" lon="0.98025">
        <ele>102</ele>
        <time>2024-01-16T19:38:34Z</time>
      </trkpt>
      <trkpt lat="47.8113" lon="0.98081">
        <ele>96</ele>
        <time>2024-01-16T19:39:29Z</time>
      </trkpt>
      <trkpt lat="47.81116" lon="0.98105">
        <ele>92</ele>
        <time>2024-01-16T19:39:57Z</time>
      </trkpt>
      <trkpt lat="47.81116" lon="0.98132">
        <ele>91</ele>
        <time>2024-01-16T19:40:22Z</time>
      </trkpt>
      <trkpt lat="47.81106" lon="0.98177">
        <ele>89</ele>
        <time>2024-01-16T19:41:04Z</time>
      </trkpt>
      <trkpt lat="47.81089" lon="0.9817">
        <ele>86</ele>
        <time>2024-01-16T19:41:28Z</time>
      </trkpt>
      <trkpt lat="47.81064" lon="0.98238">
        <ele>89</ele>
        <time>2024-01-16T19:42:37Z</time>
      </trkpt>
      <trkpt lat="47.81087" lon="0.98249">
        <ele>92</ele>
        <time>2024-01-16T19:43:09Z</time>
      </trkpt>
      <trkpt lat="47.81081" lon="0.98266">
        <ele>93</ele>
        <time>2024-01-16T19:43:27Z</time>
      </trkpt>
      <trkpt lat="47.81083" lon="0.98277">
        <ele>95</ele>
        <time>2024-01-16T19:43:37Z</time>
      </trkpt>
      <trkpt lat="47.81092" lon="0.98275">
        <ele>96</ele>
        <time>2024-01-16T19:43:49Z</time>
      </trkpt>
      <trkpt lat="47.81093" lon="0.98292">
        <ele>98</ele>
        <time>2024-01-16T19:44:04Z</time>
      </trkpt>
      <trkpt lat="47.81141" lon="0.98328">
        <ele>110</ele>
        <time>2024-01-16T19:45:16Z</time>
      </trkpt>
      <trkpt lat="47.81206" lon="0.98433">
        <ele>118</ele>
        <time>2024-01-16T19:47:24Z</time>
      </trkpt>
      <trkpt lat="47.81181" lon="0.98489">
        <ele>119</ele>
        <time>2024-01-16T19:48:24Z</time>
      </trkpt>
      <trkpt lat="47.81162" lon="0.98543">
        <ele>120</ele>
        <time>2024-01-16T19:49:19Z</time>
      </trkpt>
      <trkpt lat="47.81151" lon="0.98577">
        <ele>120</ele>
        <time>2024-01-16T19:49:53Z</time>
      </trkpt>
      <trkpt lat="47.81146" lon="0.98619">
        <ele>120</ele>
        <time>2024-01-16T19:50:31Z</time>
      </trkpt>
      <trkpt lat="47.81137" lon="0.98678">
        <ele>120</ele>
        <time>2024-01-16T19:51:25Z</time>
      </trkpt>
      <trkpt lat="47.81125" lon="0.98737">
        <ele>119</ele>
        <time>2024-01-16T19:52:20Z</time>
      </trkpt>
      <trkpt lat="47.81109" lon="0.98794">
        <ele>119</ele>
        <time>2024-01-16T19:53:16Z</time>
      </trkpt>
      <trkpt lat="47.81089" lon="0.98876">
        <ele>117</ele>
        <time>2024-01-16T19:54:34Z</time>
      </trkpt>
      <trkpt lat="47.81064" lon="0.99001">
        <ele>114</ele>
        <time>2024-01-16T19:56:31Z</time>
      </trkpt>
      <trkpt lat="47.81053" lon="0.99051">
        <ele>111</ele>
        <time>2024-01-16T19:57:18Z</time>
      </trkpt>
      <trkpt lat="47.81041" lon="0.99115">
        <ele>109</ele>
        <time>2024-01-16T19:58:17Z</time>
      </trkpt>
      <trkpt lat="47.81032" lon="0.99183">
        <ele>106</ele>
        <time>2024-01-16T19:59:20Z</time>
      </trkpt>
      <trkpt lat="47.81039" lon="0.99211">
        <ele>105</ele>
        <time>2024-01-16T19:59:46Z</time>
      </trkpt>
      <trkpt lat="47.81023" lon="0.99251">
        <ele>103</ele>
        <time>2024-01-16T20:00:28Z</time>
      </trkpt>
      <trkpt lat="47.81011" lon="0.99253">
        <ele>102</ele>
        <time>2024-01-16T20:00:44Z</time>
      </trkpt>
      <trkpt lat="47.81008" lon="0.99291">
        <ele>102</ele>
        <time>2024-01-16T20:01:18Z</time>
      </trkpt>
      <trkpt lat="47.80998" lon="0.99297">
        <ele>101</ele>
        <time>2024-01-16T20:01:33Z</time>
      </trkpt>
      <trkpt lat="47.80986" lon="0.99311">
        <ele>100</ele>
        <time>2024-01-16T20:01:53Z</time>
      </trkpt>
      <trkpt lat="47.80989" lon="0.99328">
        <ele>100</ele>
        <time>2024-01-16T20:02:09Z</time>
      </trkpt>
      <trkpt lat="47.80969" lon="0.99344">
        <ele>99</ele>
        <time>2024-01-16T20:02:39Z</time>
      </trkpt>
      <trkpt lat="47.80937" lon="0.99355">
        <ele>97</ele>
        <time>2024-01-16T20:03:23Z</time>
      </trkpt>
      <trkpt lat="47.80925" lon="0.99372">
        <ele>98</ele>
        <time>2024-01-16T20:03:45Z</time>
      </trkpt>
      <trkpt lat="47.80914" lon="0.99393">
        <ele>99</ele>
        <time>2024-01-16T20:04:09Z</time>
      </trkpt>
      <trkpt lat="47.8096" lon="0.99436">
        <ele>105</ele>
        <time>2024-01-16T20:05:21Z</time>
      </trkpt>
      <trkpt lat="47.80973" lon="0.99451">
        <ele>106</ele>
        <time>2024-01-16T20:05:43Z</time>
      </trkpt>
      <trkpt lat="47.80983" lon="0.99461">
        <ele>107</ele>
        <time>2024-01-16T20:06:00Z</time>
      </trkpt>
      <trkpt lat="47.80996" lon="0.99453">
        <ele>108</ele>
        <time>2024-01-16T20:06:18Z</time>
      </trkpt>
      <trkpt lat="47.81044" lon="0.99487">
        <ele>112</ele>
        <time>2024-01-16T20:07:29Z</time>
      </trkpt>
      <trkpt lat="47.81072" lon="0.995">
        <ele>114</ele>
        <time>2024-01-16T20:08:08Z</time>
      </trkpt>
      <trkpt lat="47.81098" lon="0.99516">
        <ele>117</ele>
        <time>2024-01-16T20:08:46Z</time>
      </trkpt>
      <trkpt lat="47.81123" lon="0.99464">
        <ele>117</ele>
        <time>2024-01-16T20:09:43Z</time>
      </trkpt>
      <trkpt lat="47.81162" lon="0.99461">
        <ele>119</ele>
        <time>2024-01-16T20:10:35Z</time>
      </trkpt>
      <trkpt lat="47.81228" lon="0.9947">
        <ele>122</ele>
        <time>2024-01-16T20:12:04Z</time>
      </trkpt>
      <trkpt lat="47.81278" lon="0.9941">
        <ele>121</ele>
        <time>2024-01-16T20:13:29Z</time>
      </trkpt>
      <trkpt lat="47.81311" lon="0.99347">
        <ele>120</ele>
        <time>2024-01-16T20:14:41Z</time>
      </trkpt>
      <trkpt lat="47.81325" lon="0.99367">
        <ele>121</ele>
        <time>2024-01-16T20:15:07Z</time>
      </trkpt>
      <trkpt lat="47.81329" lon="0.99306">
        <ele>121</ele>
        <time>2024-01-16T20:16:02Z</time>
      </trkpt>
      <trkpt lat="47.81347" lon="0.99245">
        <ele>123</ele>
        <time>2024-01-16T20:17:02Z</time>
      </trkpt>
      <trkpt lat="47.81307" lon="0.99256">
        <ele>119</ele>
        <time>2024-01-16T20:17:56Z</time>
      </trkpt>
      <trkpt lat="47.81299" lon="0.99184">
        <ele>121</ele>
        <time>2024-01-16T20:19:01Z</time>
      </trkpt>
      <trkpt lat="47.81303" lon="0.99134">
        <ele>123</ele>
        <time>2024-01-16T20:19:46Z</time>
      </trkpt>
      <trkpt lat="47.8125" lon="0.99103">
        <ele>122</ele>
        <time>2024-01-16T20:21:02Z</time>
      </trkpt>
      <trkpt lat="47.81293" lon="0.98968">
        <ele>126</ele>
        <time>2024-01-16T20:23:16Z</time>
      </trkpt>
      <trkpt lat="47.81325" lon="0.98874">
        <ele>127</ele>
        <time>2024-01-16T20:24:51Z</time>
      </trkpt>
      <trkpt lat="47.81363" lon="0.98765">
        <ele>125</ele>
        <time>2024-01-16T20:26:41Z</time>
      </trkpt>
      <trkpt lat="47.81395" lon="0.98675">
        <ele>122</ele>
        <time>2024-01-16T20:28:12Z</time>
      </trkpt>
      <trkpt lat="47.81539" lon="0.98855">
        <ele>127</ele>
        <time>2024-01-16T20:32:23Z</time>
      </trkpt>
      <trkpt lat="47.81623" lon="0.98961">
        <ele>129</ele>
        <time>2024-01-16T20:34:50Z</time>
      </trkpt>
      <trkpt lat="47.81669" lon="0.99034">
        <ele>130</ele>
        <time>2024-01-16T20:36:20Z</time>
      </trkpt>
      <trkpt lat="47.81719" lon="0.99132">
        <ele>131</ele>
        <time>2024-01-16T20:38:10Z</time>
      </trkpt>
      <trkpt lat="47.81705" lon="0.99207">
        <ele>132</ele>
        <time>2024-01-16T20:39:20Z</time>
      </trkpt>
      <trkpt lat="47.81674" lon="0.99301">
        <ele>134</ele>
        <time>2024-01-16T20:40:53Z</time>
      </trkpt>
      <trkpt lat="47.81642" lon="0.99387">
        <ele>134</ele>
        <time>2024-01-16T20:42:22Z</time>
      </trkpt>
      <trkpt lat="47.81594" lon="0.99518">
        <ele>133</ele>
        <time>2024-01-16T20:44:35Z</time>
      </trkpt>
      <trkpt lat="47.81562" lon="0.99607">
        <ele>132</ele>
        <time>2024-01-16T20:46:06Z</time>
      </trkpt>
      <trkpt lat="47.8154" lon="0.99654">
        <ele>131</ele>
        <time>2024-01-16T20:46:57Z</time>
      </trkpt>
      <trkpt lat="47.81514" lon="0.99689">
        <ele>132</ele>
        <time>2024-01-16T20:47:44Z</time>
      </trkpt>
      <trkpt lat="47.81495" lon="0.99724">
        <ele>133</ele>
        <time>2024-01-16T20:48:24Z</time>
      </trkpt>
      <trkpt lat="47.81479" lon="0.99788">
        <ele>134</ele>
        <time>2024-01-16T20:49:25Z</time>
      </trkpt>
      <trkpt lat="47.81478" lon="0.99832">
        <ele>135</ele>
        <time>2024-01-16T20:50:05Z</time>
      </trkpt>
      <trkpt lat="47.81473" lon="0.99872">
        <ele>133</ele>
        <time>2024-01-16T20:50:41Z</time>
      </trkpt>
      <trkpt lat="47.81463" lon="0.99912">
        <ele>132</ele>
        <time>2024-01-16T20:51:20Z</time>
      </trkpt>
      <trkpt lat="47.81455" lon="1.00018">
        <ele>125</ele>
        <time>2024-01-16T20:52:55Z</time>
      </trkpt>
      <trkpt lat="47.8145" lon="1.00061">
        <ele>123</ele>
        <time>2024-01-16T20:53:34Z</time>
      </trkpt>
      <trkpt lat="47.81445" lon="1.00071">
        <ele>123</ele>
        <time>2024-01-16T20:53:45Z</time>
      </trkpt>
      <trkpt lat="47.81415" lon="1.00093">
        <ele>123</ele>
        <time>2024-01-16T20:54:30Z</time>
      </trkpt>
      <trkpt lat="47.81398" lon="1.00112">
        <ele>124</ele>
        <time>2024-01-16T20:54:58Z</time>
      </trkpt>
      <trkpt lat="47.81376" lon="1.00131">
        <ele>126</ele>
        <time>2024-01-16T20:55:32Z</time>
      </trkpt>
      <trkpt lat="47.8136" lon="1.00154">
        <ele>128</ele>
        <time>2024-01-16T20:56:02Z</time>
      </trkpt>
      <trkpt lat="47.8134" lon="1.00199">
        <ele>132</ele>
        <time>2024-01-16T20:56:50Z</time>
      </trkpt>
      <trkpt lat="47.81312" lon="1.00245">
        <ele>134</ele>
        <time>2024-01-16T20:57:46Z</time>
      </trkpt>
      <trkpt lat="47.81283" lon="1.00288">
        <ele>134</ele>
        <time>2024-01-16T20:58:41Z</time>
      </trkpt>
      <trkpt lat="47.8125" lon="1.00354">
        <ele>134</ele>
        <time>2024-01-16T20:59:54Z</time>
      </trkpt>
      <trkpt lat="47.81209" lon="1.00487">
        <ele>132</ele>
        <time>2024-01-16T21:02:06Z</time>
      </trkpt>
      <trkpt lat="47.81183" lon="1.00606">
        <ele>129</ele>
        <time>2024-01-16T21:03:58Z</time>
      </trkpt>
      <trkpt lat="47.81185" lon="1.00657">
        <ele>127</ele>
        <time>2024-01-16T21:04:43Z</time>
      </trkpt>
      <trkpt lat="47.81186" lon="1.00707">
        <ele>128</ele>
        <time>2024-01-16T21:05:28Z</time>
      </trkpt>
      <trkpt lat="47.81179" lon="1.00737">
        <ele>128</ele>
        <time>2024-01-16T21:05:57Z</time>
      </trkpt>
      <trkpt lat="47.81159" lon="1.00774">
        <ele>129</ele>
        <time>2024-01-16T21:06:39Z</time>
      </trkpt>
      <trkpt lat="47.81139" lon="1.00795">
        <ele>129</ele>
        <time>2024-01-16T21:07:12Z</time>
      </trkpt>
      <trkpt lat="47.81116" lon="1.00816">
        <ele>129</ele>
        <time>2024-01-16T21:07:48Z</time>
      </trkpt>
      <trkpt lat="47.81038" lon="1.00946">
        <ele>132</ele>
        <time>2024-01-16T21:10:24Z</time>
      </trkpt>
      <trkpt lat="47.81002" lon="1.01038">
        <ele>133</ele>
        <time>2024-01-16T21:12:00Z</time>
      </trkpt>
      <trkpt lat="47.80951" lon="1.01164">
        <ele>135</ele>
        <time>2024-01-16T21:14:11Z</time>
      </trkpt>
      <trkpt lat="47.80931" lon="1.01243">
        <ele>136</ele>
        <time>2024-01-16T21:15:27Z</time>
      </trkpt>
      <trkpt lat="47.8092" lon="1.01326">
        <ele>138</ele>
        <time>2024-01-16T21:16:43Z</time>
      </trkpt>
      <trkpt lat="47.8091" lon="1.01474">
        <ele>135</ele>
        <time>2024-01-16T21:18:56Z</time>
      </trkpt>
      <trkpt lat="47.80902" lon="1.01567">
        <ele>135</ele>
        <time>2024-01-16T21:20:20Z</time>
      </trkpt>
      <trkpt lat="47.80876" lon="1.01627">
        <ele>134</ele>
        <time>2024-01-16T21:21:24Z</time>
      </trkpt>
      <trkpt lat="47.80848" lon="1.01685">
        <ele>133</ele>
        <time>2024-01-16T21:22:28Z</time>
      </trkpt>
      <trkpt lat="47.80884" lon="1.01783">
        <ele>131</ele>
        <time>2024-01-16T21:24:08Z</time>
      </trkpt>
      <trkpt lat="47.80887" lon="1.01809">
        <ele>131</ele>
        <time>2024-01-16T21:24:32Z</time>
      </trkpt>
      <trkpt lat="47.80884" lon="1.0184">
        <ele>131</ele>
        <time>2024-01-16T21:25:00Z</time>
      </trkpt>
      <trkpt lat="47.80878" lon="1.0189">
        <ele>131</ele>
        <time>2024-01-16T21:25:46Z</time>
      </trkpt>
      <trkpt lat="47.80871" lon="1.01939">
        <ele>131</ele>
        <time>2024-01-16T21:26:31Z</time>
      </trkpt>
      <trkpt lat="47.80856" lon="1.0202">
        <ele>131</ele>
        <time>2024-01-16T21:27:46Z</time>
      </trkpt>
      <trkpt lat="47.8084" lon="1.02077">
        <ele>132</ele>
        <time>2024-01-16T21:28:41Z</time>
      </trkpt>
      <trkpt lat="47.80823" lon="1.02119">
        <ele>132</ele>
        <time>2024-01-16T21:29:25Z</time>
      </trkpt>
      <trkpt lat="47.80775" lon="1.02116">
        <ele>130</ele>
        <time>2024-01-16T21:30:29Z</time>
      </trkpt>
      <trkpt lat="47.80781" lon="1.0228">
        <ele>132</ele>
        <time>2024-01-16T21:32:57Z</time>
      </trkpt>
      <trkpt lat="47.80786" lon="1.02408">
        <ele>133</ele>
        <time>2024-01-16T21:34:51Z</time>
      </trkpt>
      <trkpt lat="47.80712" lon="1.0247">
        <ele>133</ele>
        <time>2024-01-16T21:36:45Z</time>
      </trkpt>
      <trkpt lat="47.80638" lon="1.02532">
        <ele>134</ele>
        <time>2024-01-16T21:38:38Z</time>
      </trkpt>
      <trkpt lat="47.80607" lon="1.02558">
        <ele>134</ele>
        <time>2024-01-16T21:39:26Z</time>
      </trkpt>
      <trkpt lat="47.80581" lon="1.0258">
        <ele>133</ele>
        <time>2024-01-16T21:40:05Z</time>
      </trkpt>
      <trkpt lat="47.80526" lon="1.02595">
        <ele>132</ele>
        <time>2024-01-16T21:41:20Z</time>
      </trkpt>
      <trkpt lat="47.80453" lon="1.02611">
        <ele>131</ele>
        <time>2024-01-16T21:42:59Z</time>
      </trkpt>
      <trkpt lat="47.80424" lon="1.0262">
        <ele>131</ele>
        <time>2024-01-16T21:43:38Z</time>
      </trkpt>
      <trkpt lat="47.80421" lon="1.02612">
        <ele>131</ele>
        <time>2024-01-16T21:43:46Z</time>
      </trkpt>
      <trkpt lat="47.80341" lon="1.02647">
        <ele>131</ele>
        <time>2024-01-16T21:45:38Z</time>
      </trkpt>
      <trkpt lat="47.80353" lon="1.02695">
        <ele>130</ele>
        <time>2024-01-16T21:46:23Z</time>
      </trkpt>
      <trkpt lat="47.80353" lon="1.02713">
        <ele>129</ele>
        <time>2024-01-16T21:46:40Z</time>
      </trkpt>
      <trkpt lat="47.80377" lon="1.02816">
        <ele>124</ele>
        <time>2024-01-16T21:48:17Z</time>
      </trkpt>
      <trkpt lat="47.80385" lon="1.0281">
        <ele>124</ele>
        <time>2024-01-16T21:48:29Z</time>
      </trkpt>
      <trkpt lat="47.80443" lon="1.02983">
        <ele>117</ele>
        <time>2024-01-16T21:51:23Z</time>
      </trkpt>
      <trkpt lat="47.8045" lon="1.02998">
        <ele>116</ele>
        <time>2024-01-16T21:51:39Z</time>
      </trkpt>
      <trkpt lat="47.80448" lon="1.03091">
        <ele>112</ele>
        <time>2024-01-16T21:53:02Z</time>
      </trkpt>
      <trkpt lat="47.80452" lon="1.03153">
        <ele>108</ele>
        <time>2024-01-16T21:53:58Z</time>
      </trkpt>
      <trkpt lat="47.80482" lon="1.03226">
        <ele>106</ele>
        <time>2024-01-16T21:55:15Z</time>
      </trkpt>
      <trkpt lat="47.80464" lon="1.03335">
        <ele>100</ele>
        <time>2024-01-16T21:56:55Z</time>
      </trkpt>
      <trkpt lat="47.80445" lon="1.03444">
        <ele>91</ele>
        <time>2024-01-16T21:58:36Z</time>
      </trkpt>
      <trkpt lat="47.80444" lon="1.0352">
        <ele>87</ele>
        <time>2024-01-16T21:59:45Z</time>
      </trkpt>
      <trkpt lat="47.80371" lon="1.03542">
        <ele>84</ele>
        <time>2024-01-16T22:01:24Z</time>
      </trkpt>
      <trkpt lat="47.80335" lon="1.03553">
        <ele>83</ele>
        <time>2024-01-16T22:02:13Z</time>
      </trkpt>
      <trkpt lat="47.80334" lon="1.03477">
        <ele>82</ele>
        <time>2024-01-16T22:03:21Z</time>
      </trkpt>
    </trkseg>
  </trk>
</gpx>